Time;durP1;ratioP1;P1;durP2;ratioP2;P2;SDS_P1;SDS_P2;PMS_P1;PMS_P2;Temp;Humidity;BMP_temperature;BMP_pressure;BME280_temperature;BME280_humidity;BME280_pressure;Samples;Min_cycle;Max_cycle;Signal;HPM_P1;HPM_P2
2022/06/30 00:00:20;;;;;;;6.57;6.07;;;;;;;;;;5136067;27;20533;-70
2022/06/30 00:02:48;;;;;;;6.13;5.60;;;;;;;;;;5136194;27;20520;-68
2022/06/30 00:05:15;;;;;;;6.47;5.97;;;;;;;;;;5135702;27;20440;-68
2022/06/30 00:07:43;;;;;;;8.30;5.80;;;;;;;;;;5136076;27;20467;-68
2022/06/30 00:10:11;;;;;;;8.10;5.97;;;;;;;;;;5135502;27;20479;-68
2022/06/30 00:12:39;;;;;;;6.33;5.83;;;;;;;;;;5135665;27;20494;-68
2022/06/30 00:15:06;;;;;;;7.73;6.23;;;;;;;;;;5135808;27;20467;-67
2022/06/30 00:17:33;;;;;;;6.23;5.63;;;;;;;;;;5135426;27;20459;-69
2022/06/30 00:20:01;;;;;;;6.90;6.40;;;;;;;;;;5135407;27;20947;-68
2022/06/30 00:22:28;;;;;;;6.73;6.13;;;;;;;;;;5135765;27;20536;-68
2022/06/30 00:24:57;;;;;;;5.97;5.57;;;;;;;;;;5135621;27;20459;-68
2022/06/30 00:27:24;;;;;;;7.70;6.90;;;;;;;;;;5135778;27;20598;-68
2022/06/30 00:29:51;;;;;;;7.27;6.50;;;;;;;;;;5135096;27;20472;-67
2022/06/30 00:32:19;;;;;;;6.90;6.40;;;;;;;;;;5135559;27;20527;-68
2022/06/30 00:34:46;;;;;;;7.00;6.40;;;;;;;;;;5135391;27;20492;-67
2022/06/30 00:37:13;;;;;;;7.03;6.33;;;;;;;;;;5135500;27;20511;-68
2022/06/30 00:39:40;;;;;;;7.63;6.87;;;;;;;;;;5135551;27;20530;-67
2022/06/30 00:42:09;;;;;;;8.47;6.83;;;;;;;;;;5135056;27;21007;-69
2022/06/30 00:44:36;;;;;;;7.93;7.10;;;;;;;;;;5135187;27;20452;-68
2022/06/30 00:47:05;;;;;;;8.07;7.33;;;;;;;;;;5135009;27;20814;-68
2022/06/30 00:49:32;;;;;;;7.63;7.10;;;;;;;;;;5134561;27;20546;-68
2022/06/30 00:52:01;;;;;;;8.30;7.70;;;;;;;;;;5135652;27;20507;-68
2022/06/30 00:54:28;;;;;;;7.50;6.90;;;;;;;;;;5134739;27;20520;-68
2022/06/30 00:56:56;;;;;;;8.47;7.57;;;;;;;;;;5135297;27;20493;-68
2022/06/30 00:59:24;;;;;;;7.83;7.23;;;;;;;;;;5134928;27;20451;-68
2022/06/30 01:01:52;;;;;;;7.90;7.17;;;;;;;;;;5135171;27;20769;-69
2022/06/30 01:04:20;;;;;;;7.60;6.93;;;;;;;;;;5134575;27;20519;-70
2022/06/30 01:06:47;;;;;;;7.57;7.00;;;;;;;;;;5134967;27;20434;-69
2022/06/30 01:12:41;;;;;;;7.93;7.33;;;;;;;;;;5135142;27;20480;-68
2022/06/30 01:15:02;;;;;;;7.87;7.13;;;;;;;;;;5071465;28;20507;-68
2022/06/30 01:17:29;;;;;;;8.37;7.77;;;;;;;;;;5120390;27;20466;-68
2022/06/30 01:19:57;;;;;;;8.77;7.93;;;;;;;;;;5135223;27;20534;-68
2022/06/30 01:22:26;;;;;;;8.33;7.63;;;;;;;;;;5134923;27;20470;-68
2022/06/30 01:24:53;;;;;;;7.60;7.07;;;;;;;;;;5134981;27;20467;-68
2022/06/30 01:27:20;;;;;;;10.47;7.43;;;;;;;;;;5134545;27;20921;-69
2022/06/30 01:29:48;;;;;;;7.60;7.00;;;;;;;;;;5134099;27;20564;-68
2022/06/30 01:32:16;;;;;;;9.10;8.20;;;;;;;;;;5134659;27;20482;-68
2022/06/30 01:34:43;;;;;;;9.70;8.70;;;;;;;;;;5134866;28;20548;-68
2022/06/30 01:37:10;;;;;;;11.50;8.43;;;;;;;;;;5134587;28;20528;-68
2022/06/30 01:39:39;;;;;;;8.20;7.57;;;;;;;;;;5134672;28;20471;-69
2022/06/30 01:42:07;;;;;;;8.57;7.87;;;;;;;;;;5134439;28;20480;-69
2022/06/30 01:44:34;;;;;;;8.50;7.63;;;;;;;;;;5134527;28;20526;-68
2022/06/30 01:47:02;;;;;;;9.67;8.67;;;;;;;;;;5134486;28;20493;-68
2022/06/30 01:49:29;;;;;;;8.17;7.47;;;;;;;;;;5134160;27;20523;-69
2022/06/30 01:51:56;;;;;;;8.53;7.83;;;;;;;;;;5134448;28;20717;-69
2022/06/30 01:54:23;;;;;;;8.03;7.50;;;;;;;;;;5134031;28;20937;-69
2022/06/30 01:56:52;;;;;;;7.87;7.27;;;;;;;;;;5134376;28;20832;-69
2022/06/30 01:59:19;;;;;;;9.10;8.27;;;;;;;;;;5134347;28;20445;-68
2022/06/30 02:01:46;;;;;;;9.03;8.23;;;;;;;;;;5134314;28;20471;-69
2022/06/30 02:06:58;;;;;;;9.33;8.20;;;;;;;;;;5134349;28;20441;-69
2022/06/30 02:09:26;;;;;;;9.60;8.80;;;;;;;;;;5134215;28;20834;-70
2022/06/30 02:14:35;;;;;;;7.83;7.23;;;;;;;;;;5136721;27;20488;-68
2022/06/30 02:17:03;;;;;;;11.77;8.37;;;;;;;;;;5138030;27;20476;-69
2022/06/30 02:19:30;;;;;;;10.03;8.40;;;;;;;;;;5137901;27;20929;-68
2022/06/30 02:21:57;;;;;;;10.53;9.53;;;;;;;;;;5137699;27;20447;-69
2022/06/30 02:24:25;;;;;;;9.27;8.47;;;;;;;;;;5138296;27;20438;-68
2022/06/30 02:26:52;;;;;;;10.17;9.30;;;;;;;;;;5137942;27;20439;-68
2022/06/30 02:29:21;;;;;;;10.37;9.30;;;;;;;;;;5137843;27;20988;-68
2022/06/30 02:31:48;;;;;;;9.03;8.23;;;;;;;;;;5137927;27;20874;-67
2022/06/30 02:34:15;;;;;;;9.47;8.67;;;;;;;;;;5138350;27;20438;-67
2022/06/30 02:36:42;;;;;;;9.10;8.40;;;;;;;;;;5137741;27;20445;-67
2022/06/30 02:39:10;;;;;;;9.73;8.80;;;;;;;;;;5138266;27;20450;-67
2022/06/30 02:41:37;;;;;;;9.20;8.40;;;;;;;;;;5137682;27;20447;-68
2022/06/30 02:44:04;;;;;;;9.70;8.90;;;;;;;;;;5137696;27;20435;-67
2022/06/30 02:46:33;;;;;;;10.73;9.40;;;;;;;;;;5137617;27;20770;-67
2022/06/30 02:49:00;;;;;;;9.83;9.00;;;;;;;;;;5137289;27;20443;-67
2022/06/30 02:51:27;;;;;;;12.60;8.80;;;;;;;;;;5137815;27;20532;-67
2022/06/30 02:53:54;;;;;;;10.43;9.60;;;;;;;;;;5137539;27;20450;-68
2022/06/30 02:56:22;;;;;;;11.63;9.17;;;;;;;;;;5137075;27;20471;-67
2022/06/30 02:58:49;;;;;;;9.70;8.87;;;;;;;;;;5137159;27;20513;-67
2022/06/30 03:01:17;;;;;;;10.30;9.30;;;;;;;;;;5137459;27;20438;-67
2022/06/30 03:03:45;;;;;;;11.67;9.00;;;;;;;;;;5137011;27;20495;-67
2022/06/30 03:06:13;;;;;;;11.40;10.30;;;;;;;;;;5136834;27;20485;-67
2022/06/30 03:08:40;;;;;;;10.83;9.73;;;;;;;;;;5137248;27;20526;-67
2022/06/30 03:11:07;;;;;;;9.90;9.10;;;;;;;;;;5136711;27;20469;-67
2022/06/30 03:13:34;;;;;;;11.20;10.13;;;;;;;;;;5136856;27;20522;-67
2022/06/30 03:16:02;;;;;;;11.53;9.37;;;;;;;;;;5137041;27;20438;-67
2022/06/30 03:18:29;;;;;;;9.17;8.37;;;;;;;;;;5137275;27;20472;-67
2022/06/30 03:20:58;;;;;;;11.00;9.97;;;;;;;;;;5137142;27;20536;-67
2022/06/30 03:23:26;;;;;;;10.87;9.87;;;;;;;;;;5136633;27;20955;-68
2022/06/30 03:25:53;;;;;;;11.33;10.33;;;;;;;;;;5136632;27;20804;-67
2022/06/30 03:28:21;;;;;;;11.00;10.10;;;;;;;;;;5136546;27;20527;-67
2022/06/30 03:30:48;;;;;;;11.73;9.97;;;;;;;;;;5136346;27;20528;-68
2022/06/30 03:33:15;;;;;;;11.00;10.00;;;;;;;;;;5136977;27;20470;-67
2022/06/30 03:35:43;;;;;;;10.43;9.60;;;;;;;;;;5137162;27;20518;-67
2022/06/30 03:38:12;;;;;;;10.43;9.53;;;;;;;;;;5136188;27;20526;-68
2022/06/30 03:40:39;;;;;;;10.73;9.73;;;;;;;;;;5136384;27;20530;-67
2022/06/30 03:43:07;;;;;;;10.90;9.90;;;;;;;;;;5136147;27;20430;-68
2022/06/30 03:45:34;;;;;;;12.70;11.40;;;;;;;;;;5136487;27;20441;-67
2022/06/30 03:48:02;;;;;;;13.13;10.70;;;;;;;;;;5136122;27;20442;-67
2022/06/30 03:50:30;;;;;;;12.83;11.60;;;;;;;;;;5136553;27;20585;-67
2022/06/30 03:52:57;;;;;;;11.93;10.87;;;;;;;;;;5136458;27;20484;-67
2022/06/30 03:55:26;;;;;;;11.77;10.73;;;;;;;;;;5135431;27;20444;-66
2022/06/30 03:57:53;;;;;;;11.27;10.30;;;;;;;;;;5115604;28;20440;-67
2022/06/30 04:00:21;;;;;;;15.17;11.13;;;;;;;;;;5116530;28;20449;-67
2022/06/30 04:02:48;;;;;;;11.83;10.83;;;;;;;;;;5115213;28;20448;-67
2022/06/30 04:05:15;;;;;;;12.00;10.80;;;;;;;;;;5115502;28;20534;-67
2022/06/30 04:07:43;;;;;;;12.27;11.17;;;;;;;;;;5115169;28;20445;-67
2022/06/30 04:10:10;;;;;;;11.10;10.20;;;;;;;;;;5115402;28;20558;-67
2022/06/30 04:12:39;;;;;;;11.73;10.50;;;;;;;;;;5115021;28;20530;-68
2022/06/30 04:15:07;;;;;;;11.87;10.87;;;;;;;;;;5115554;28;20436;-67
2022/06/30 04:17:35;;;;;;;11.30;10.20;;;;;;;;;;5114814;28;20455;-67
2022/06/30 04:20:02;;;;;;;11.33;10.23;;;;;;;;;;5115553;28;20441;-68
2022/06/30 04:22:29;;;;;;;11.67;10.50;;;;;;;;;;5115437;28;20455;-67
2022/06/30 04:24:57;;;;;;;11.90;10.83;;;;;;;;;;5115298;28;20461;-67
2022/06/30 04:27:24;;;;;;;11.63;10.53;;;;;;;;;;5132299;27;20498;-67
2022/06/30 04:29:52;;;;;;;12.30;11.10;;;;;;;;;;5135237;27;20480;-67
2022/06/30 04:35:05;;;;;;;13.00;11.80;;;;;;;;;;5135686;27;20926;-67
2022/06/30 04:37:32;;;;;;;13.63;9.93;;;;;;;;;;5134791;27;20544;-67
2022/06/30 04:42:46;;;;;;;12.30;11.20;;;;;;;;;;5108577;27;20756;-67
2022/06/30 04:45:15;;;;;;;13.17;11.83;;;;;;;;;;5135289;27;20446;-67
2022/06/30 04:47:42;;;;;;;12.80;11.60;;;;;;;;;;5135261;27;20453;-67
2022/06/30 04:50:10;;;;;;;12.07;11.07;;;;;;;;;;5134988;27;20959;-67
2022/06/30 04:52:38;;;;;;;12.00;10.90;;;;;;;;;;5135078;27;20548;-67
2022/06/30 04:55:06;;;;;;;12.20;11.10;;;;;;;;;;5134784;27;20468;-68
2022/06/30 04:57:33;;;;;;;12.30;11.10;;;;;;;;;;5134860;27;20524;-67
2022/06/30 05:00:00;;;;;;;11.40;10.20;;;;;;;;;;5135827;27;20529;-67
2022/06/30 05:02:29;;;;;;;10.70;9.80;;;;;;;;;;5134640;27;20434;-67
2022/06/30 05:04:56;;;;;;;10.77;9.77;;;;;;;;;;5135152;27;20525;-67
2022/06/30 05:07:23;;;;;;;11.67;10.53;;;;;;;;;;5134981;27;20494;-67
2022/06/30 05:09:50;;;;;;;10.33;9.33;;;;;;;;;;5134774;27;20448;-67
2022/06/30 05:12:17;;;;;;;10.63;9.70;;;;;;;;;;5134782;27;20445;-68
2022/06/30 05:14:45;;;;;;;11.20;10.00;;;;;;;;;;5134763;27;20469;-68
2022/06/30 05:17:12;;;;;;;10.90;9.80;;;;;;;;;;5134487;27;20449;-68
2022/06/30 05:19:41;;;;;;;12.23;9.30;;;;;;;;;;5134418;27;20438;-70
2022/06/30 05:22:08;;;;;;;19.23;15.23;;;;;;;;;;5134832;27;20437;-69
2022/06/30 05:27:20;;;;;;;12.93;10.57;;;;;;;;;;5134606;27;20777;-68
2022/06/30 05:29:47;;;;;;;11.67;10.67;;;;;;;;;;5134006;27;20724;-68
2022/06/30 05:32:14;;;;;;;12.60;11.40;;;;;;;;;;5134268;27;20438;-68
2022/06/30 05:34:43;;;;;;;11.13;10.23;;;;;;;;;;5134404;27;20442;-68
2022/06/30 05:37:10;;;;;;;12.40;11.20;;;;;;;;;;5134174;27;20444;-69
2022/06/30 05:39:37;;;;;;;11.43;10.40;;;;;;;;;;5134126;28;20438;-69
2022/06/30 05:42:05;;;;;;;12.43;11.17;;;;;;;;;;5133889;28;20459;-69
2022/06/30 05:44:33;;;;;;;13.00;11.70;;;;;;;;;;5134510;28;20456;-69
2022/06/30 05:47:00;;;;;;;14.33;13.00;;;;;;;;;;5133955;27;20458;-69
2022/06/30 05:49:27;;;;;;;12.70;11.50;;;;;;;;;;5136936;27;21144;-68
2022/06/30 05:51:56;;;;;;;14.23;12.90;;;;;;;;;;5138387;27;20541;-69
2022/06/30 05:54:23;;;;;;;12.77;11.47;;;;;;;;;;5138275;27;20525;-68
2022/06/30 05:56:50;;;;;;;13.20;11.63;;;;;;;;;;5138556;27;20521;-68
2022/06/30 05:59:18;;;;;;;13.30;12.00;;;;;;;;;;5138508;27;20845;-68
2022/06/30 06:01:45;;;;;;;13.27;12.10;;;;;;;;;;5138697;27;20524;-68
2022/06/30 06:04:12;;;;;;;13.13;11.93;;;;;;;;;;5138102;27;20516;-68
2022/06/30 06:06:39;;;;;;;12.73;11.63;;;;;;;;;;5138749;27;20526;-68
2022/06/30 06:09:08;;;;;;;13.40;12.23;;;;;;;;;;5138303;27;20512;-68
2022/06/30 06:11:36;;;;;;;13.30;11.90;;;;;;;;;;5137977;27;20476;-68
2022/06/30 06:14:03;;;;;;;12.10;11.00;;;;;;;;;;5138754;27;20441;-68
2022/06/30 06:16:30;;;;;;;13.07;11.83;;;;;;;;;;5138038;27;20450;-68
2022/06/30 06:18:57;;;;;;;12.93;11.73;;;;;;;;;;5137795;27;20448;-68
2022/06/30 06:21:26;;;;;;;13.40;12.30;;;;;;;;;;5138182;27;20795;-68
2022/06/30 06:23:54;;;;;;;13.33;12.07;;;;;;;;;;5138055;27;20469;-69
2022/06/30 06:26:22;;;;;;;13.17;11.90;;;;;;;;;;5138143;27;20524;-68
2022/06/30 06:29:08;;;;;;;13.90;12.60;;;;;;;;;;5137544;27;21010;-68
2022/06/30 06:31:36;;;;;;;13.00;11.80;;;;;;;;;;5138485;27;20462;-68
2022/06/30 06:34:04;;;;;;;15.53;13.93;;;;;;;;;;5137559;27;20477;-68
2022/06/30 06:36:32;;;;;;;12.77;11.50;;;;;;;;;;5137590;27;20478;-68
2022/06/30 06:38:59;;;;;;;18.60;12.57;;;;;;;;;;5137447;27;20488;-68
2022/06/30 06:41:28;;;;;;;12.70;11.60;;;;;;;;;;5137539;27;20483;-68
2022/06/30 06:43:55;;;;;;;13.83;12.63;;;;;;;;;;5137355;27;21014;-68
2022/06/30 06:46:26;;;;;;;13.03;11.90;;;;;;;;;;5137431;27;20907;-68
2022/06/30 06:48:54;;;;;;;14.27;13.03;;;;;;;;;;5137336;27;20907;-68
2022/06/30 06:51:21;;;;;;;13.73;12.53;;;;;;;;;;5137377;27;20613;-68
2022/06/30 06:53:48;;;;;;;13.50;12.10;;;;;;;;;;5138012;27;20987;-69
2022/06/30 06:56:16;;;;;;;13.20;11.90;;;;;;;;;;5137164;27;20530;-69
2022/06/30 06:58:44;;;;;;;14.10;12.90;;;;;;;;;;5137253;27;20466;-68
2022/06/30 07:01:12;;;;;;;14.77;13.37;;;;;;;;;;5137153;27;20461;-68
2022/06/30 07:03:40;;;;;;;15.53;12.90;;;;;;;;;;5137365;27;20484;-69
2022/06/30 07:06:07;;;;;;;16.40;13.87;;;;;;;;;;5137232;27;20814;-68
2022/06/30 07:08:34;;;;;;;15.40;14.00;;;;;;;;;;5138015;27;20474;-68
2022/06/30 07:11:03;;;;;;;14.67;13.13;;;;;;;;;;5136976;27;20989;-70
2022/06/30 07:13:30;;;;;;;20.73;13.63;;;;;;;;;;5137504;27;20446;-68
2022/06/30 07:15:59;;;;;;;14.13;12.73;;;;;;;;;;5136835;27;20442;-68
2022/06/30 07:18:27;;;;;;;16.70;14.07;;;;;;;;;;5137249;27;20585;-68
2022/06/30 07:20:54;;;;;;;15.10;13.20;;;;;;;;;;5137126;27;20439;-68
2022/06/30 07:23:22;;;;;;;15.73;14.07;;;;;;;;;;5136910;27;20908;-68
2022/06/30 07:25:49;;;;;;;15.23;13.10;;;;;;;;;;5136540;27;20542;-69
2022/06/30 07:28:16;;;;;;;15.13;13.67;;;;;;;;;;5137116;27;20475;-69
2022/06/30 07:30:43;;;;;;;16.40;13.97;;;;;;;;;;5136407;27;20502;-69
2022/06/30 07:33:12;;;;;;;16.83;13.80;;;;;;;;;;5137542;27;20520;-69
2022/06/30 07:35:39;;;;;;;18.60;13.70;;;;;;;;;;5136910;27;20886;-69
2022/06/30 07:38:06;;;;;;;16.50;13.97;;;;;;;;;;5136776;27;20841;-69
2022/06/30 07:40:34;;;;;;;14.57;13.10;;;;;;;;;;5136205;27;20528;-69
2022/06/30 07:43:01;;;;;;;17.90;14.80;;;;;;;;;;5136640;27;20469;-69
2022/06/30 07:45:28;;;;;;;18.43;14.90;;;;;;;;;;5136541;27;20547;-69
2022/06/30 07:47:55;;;;;;;15.40;13.80;;;;;;;;;;5136105;27;20447;-69
2022/06/30 07:50:24;;;;;;;14.23;12.73;;;;;;;;;;5135765;27;20476;-68
2022/06/30 07:52:52;;;;;;;14.53;13.10;;;;;;;;;;5136757;27;20980;-69
2022/06/30 07:55:19;;;;;;;14.30;13.00;;;;;;;;;;5135943;27;20975;-68
2022/06/30 07:57:48;;;;;;;15.30;12.30;;;;;;;;;;5136046;27;20934;-69
2022/06/30 08:00:16;;;;;;;16.10;12.83;;;;;;;;;;5135780;27;20448;-69
2022/06/30 08:02:45;;;;;;;13.80;12.70;;;;;;;;;;5135842;27;20491;-68
2022/06/30 08:05:12;;;;;;;14.13;12.20;;;;;;;;;;5135839;27;20813;-68
2022/06/30 08:07:40;;;;;;;14.13;12.93;;;;;;;;;;5135990;27;21050;-68
2022/06/30 08:10:08;;;;;;;14.00;12.50;;;;;;;;;;5136027;27;20448;-68
2022/06/30 08:12:35;;;;;;;13.90;12.47;;;;;;;;;;5134626;27;20571;-68
2022/06/30 08:15:03;;;;;;;25.53;12.80;;;;;;;;;;5135783;27;20517;-68
2022/06/30 08:17:31;;;;;;;12.30;10.97;;;;;;;;;;5136135;27;20474;-68
2022/06/30 08:19:59;;;;;;;12.47;11.47;;;;;;;;;;5135972;27;20442;-69
2022/06/30 08:22:26;;;;;;;12.67;11.13;;;;;;;;;;5135884;27;20466;-68
2022/06/30 08:24:57;;;;;;;13.33;12.00;;;;;;;;;;5135501;27;20788;-69
2022/06/30 08:27:24;;;;;;;12.73;11.00;;;;;;;;;;5135518;27;20424;-68
2022/06/30 08:29:51;;;;;;;12.80;11.37;;;;;;;;;;5136061;27;20447;-69
2022/06/30 08:32:19;;;;;;;11.97;11.07;;;;;;;;;;5135408;27;20914;-68
2022/06/30 08:34:46;;;;;;;10.83;9.93;;;;;;;;;;5135212;27;20513;-68
2022/06/30 08:37:13;;;;;;;11.43;10.53;;;;;;;;;;5135040;27;20470;-69
2022/06/30 08:42:27;;;;;;;13.40;12.07;;;;;;;;;;5135219;27;20376;-69
2022/06/30 08:47:39;;;;;;;12.97;11.70;;;;;;;;;;5135700;27;20761;-69
2022/06/30 08:50:08;;;;;;;11.87;10.87;;;;;;;;;;5135533;27;20474;-68
2022/06/30 08:52:36;;;;;;;12.67;11.43;;;;;;;;;;5135235;27;20452;-69
2022/06/30 08:55:04;;;;;;;11.67;10.77;;;;;;;;;;5135111;27;20495;-68
2022/06/30 08:57:33;;;;;;;11.40;10.50;;;;;;;;;;5134660;27;20444;-69
2022/06/30 09:00:00;;;;;;;10.90;10.00;;;;;;;;;;5135078;27;20438;-68
2022/06/30 09:02:27;;;;;;;10.13;9.13;;;;;;;;;;5135026;27;20446;-68
2022/06/30 09:04:54;;;;;;;15.57;10.23;;;;;;;;;;5135053;27;20437;-68
2022/06/30 09:07:22;;;;;;;8.30;7.60;;;;;;;;;;5134787;27;20474;-68
2022/06/30 09:09:49;;;;;;;8.57;7.77;;;;;;;;;;5134930;27;20413;-68
2022/06/30 09:12:17;;;;;;;9.20;8.30;;;;;;;;;;5134712;27;20591;-69
2022/06/30 09:14:47;;;;;;;7.87;7.27;;;;;;;;;;5135075;27;20431;-69
2022/06/30 09:17:15;;;;;;;7.00;6.40;;;;;;;;;;5134431;27;20859;-69
2022/06/30 09:19:55;;;;;;;8.03;7.30;;;;;;;;;;5134691;27;20945;-69
2022/06/30 09:22:26;;;;;;;9.80;8.80;;;;;;;;;;5134099;27;20446;-69
2022/06/30 09:24:57;;;;;;;10.20;9.30;;;;;;;;;;5135195;27;20456;-69
2022/06/30 09:27:26;;;;;;;9.43;8.40;;;;;;;;;;5134292;27;20470;-68
2022/06/30 09:29:58;;;;;;;11.73;9.10;;;;;;;;;;5134374;27;20417;-68
2022/06/30 09:32:25;;;;;;;12.60;8.83;;;;;;;;;;5134590;27;20534;-68
2022/06/30 09:34:53;;;;;;;9.70;8.87;;;;;;;;;;5134680;27;20419;-68
2022/06/30 09:37:21;;;;;;;9.00;8.10;;;;;;;;;;5134419;28;20498;-68
2022/06/30 09:39:49;;;;;;;10.77;8.83;;;;;;;;;;5134485;28;20412;-69
2022/06/30 09:42:36;;;;;;;7.60;7.10;;;;;;;;;;5134057;28;20445;-69
2022/06/30 09:45:05;;;;;;;9.30;8.10;;;;;;;;;;5134167;28;20914;-68
2022/06/30 09:47:32;;;;;;;7.23;6.73;;;;;;;;;;5133938;28;20431;-68
2022/06/30 09:50:02;;;;;;;8.47;7.67;;;;;;;;;;5134439;28;20805;-68
2022/06/30 09:52:30;;;;;;;8.70;7.90;;;;;;;;;;5134685;28;20955;-68
2022/06/30 09:54:58;;;;;;;8.50;7.80;;;;;;;;;;5134600;28;20506;-69
2022/06/30 09:57:26;;;;;;;8.17;7.37;;;;;;;;;;5133927;28;20413;-69
2022/06/30 09:59:59;;;;;;;8.10;7.50;;;;;;;;;;5134358;28;20420;-68
2022/06/30 10:02:32;;;;;;;8.53;7.93;;;;;;;;;;5134474;28;20424;-68
2022/06/30 10:04:59;;;;;;;8.30;7.50;;;;;;;;;;5134418;28;20938;-68
2022/06/30 10:07:27;;;;;;;10.70;7.77;;;;;;;;;;5134187;28;20847;-68
2022/06/30 10:09:54;;;;;;;9.60;8.90;;;;;;;;;;5133567;28;20890;-69
2022/06/30 10:12:22;;;;;;;8.33;7.67;;;;;;;;;;5133718;28;20539;-68
2022/06/30 10:14:50;;;;;;;8.40;7.60;;;;;;;;;;5134394;28;20825;-68
2022/06/30 10:17:20;;;;;;;8.10;7.40;;;;;;;;;;5134641;28;20449;-68
2022/06/30 10:19:50;;;;;;;7.73;7.10;;;;;;;;;;5134606;28;20466;-69
2022/06/30 10:22:17;;;;;;;7.77;7.03;;;;;;;;;;5133792;28;20924;-69
2022/06/30 10:24:45;;;;;;;10.53;6.60;;;;;;;;;;5133617;28;20531;-69
2022/06/30 10:27:13;;;;;;;7.27;6.57;;;;;;;;;;5133813;28;20448;-68
2022/06/30 10:29:41;;;;;;;8.20;7.40;;;;;;;;;;5133990;28;20418;-68
2022/06/30 10:32:11;;;;;;;6.37;5.90;;;;;;;;;;5133738;28;20867;-68
2022/06/30 10:34:40;;;;;;;8.30;7.00;;;;;;;;;;5135080;27;20457;-68
2022/06/30 10:37:13;;;;;;;7.40;6.70;;;;;;;;;;5137151;27;20574;-68
2022/06/30 10:39:45;;;;;;;6.97;6.27;;;;;;;;;;5138388;27;20439;-68
2022/06/30 10:42:13;;;;;;;6.97;6.33;;;;;;;;;;5137430;27;20531;-68
2022/06/30 10:44:40;;;;;;;6.73;6.20;;;;;;;;;;5137433;27;20423;-68
2022/06/30 10:47:11;;;;;;;7.90;7.20;;;;;;;;;;5137626;27;20635;-68
2022/06/30 10:49:58;;;;;;;8.77;7.90;;;;;;;;;;5137409;27;20444;-68
2022/06/30 10:52:29;;;;;;;8.60;7.10;;;;;;;;;;5137504;27;20536;-68
2022/06/30 10:55:05;;;;;;;7.70;7.00;;;;;;;;;;5137537;27;20408;-68
2022/06/30 10:57:51;;;;;;;6.73;6.23;;;;;;;;;;5137433;27;20440;-68
2022/06/30 11:00:36;;;;;;;6.17;5.67;;;;;;;;;;5136978;27;20503;-68
2022/06/30 11:03:04;;;;;;;7.17;6.00;;;;;;;;;;5137188;27;20447;-68
2022/06/30 11:05:31;;;;;;;8.20;7.40;;;;;;;;;;5137588;27;20426;-68
2022/06/30 11:08:19;;;;;;;6.40;5.90;;;;;;;;;;5136908;27;20893;-68
2022/06/30 11:10:47;;;;;;;5.83;5.33;;;;;;;;;;5137490;27;20514;-69
2022/06/30 11:13:14;;;;;;;5.87;5.30;;;;;;;;;;5137043;27;20449;-68
2022/06/30 11:15:54;;;;;;;5.70;5.30;;;;;;;;;;5136779;27;20475;-69
2022/06/30 11:18:22;;;;;;;6.57;6.07;;;;;;;;;;5136669;27;20465;-68
2022/06/30 11:20:49;;;;;;;6.87;5.57;;;;;;;;;;5137060;27;20529;-68
2022/06/30 11:23:20;;;;;;;5.77;5.33;;;;;;;;;;5136478;27;20506;-68
2022/06/30 11:28:35;;;;;;;6.13;5.63;;;;;;;;;;5136858;27;20509;-68
2022/06/30 11:31:02;;;;;;;6.37;5.87;;;;;;;;;;5136878;27;20440;-69
2022/06/30 11:33:29;;;;;;;5.60;5.30;;;;;;;;;;5136349;27;20465;-68
2022/06/30 11:36:05;;;;;;;7.07;6.47;;;;;;;;;;5136852;27;20447;-69
2022/06/30 11:38:34;;;;;;;6.57;6.03;;;;;;;;;;5136311;27;20473;-68
2022/06/30 11:43:43;;;;;;;6.67;5.97;;;;;;;;;;5135434;27;20386;-69
2022/06/30 11:46:10;;;;;;;7.10;6.33;;;;;;;;;;5136554;27;20418;-69
2022/06/30 11:48:38;;;;;;;6.37;5.93;;;;;;;;;;5136486;27;20494;-69
2022/06/30 11:51:05;;;;;;;6.50;6.00;;;;;;;;;;5136424;27;20810;-69
2022/06/30 11:53:34;;;;;;;6.40;5.90;;;;;;;;;;5136296;27;20472;-68
2022/06/30 11:56:01;;;;;;;5.90;5.40;;;;;;;;;;5136203;27;20532;-69
2022/06/30 11:58:29;;;;;;;6.27;5.83;;;;;;;;;;5136143;27;20441;-68
2022/06/30 12:00:56;;;;;;;6.00;5.43;;;;;;;;;;5136912;27;20475;-69
2022/06/30 12:03:23;;;;;;;6.10;5.70;;;;;;;;;;5136131;27;20453;-69
2022/06/30 12:05:54;;;;;;;5.70;5.33;;;;;;;;;;5135936;27;20928;-69
2022/06/30 12:08:23;;;;;;;7.33;6.00;;;;;;;;;;5136541;27;21286;-68
2022/06/30 12:10:56;;;;;;;7.10;6.50;;;;;;;;;;5135790;27;20451;-69
2022/06/30 12:13:24;;;;;;;6.53;5.90;;;;;;;;;;5136116;27;20863;-68
2022/06/30 12:15:51;;;;;;;6.10;5.60;;;;;;;;;;5136342;27;20514;-69
2022/06/30 12:18:23;;;;;;;5.70;5.10;;;;;;;;;;5136413;27;20455;-69
2022/06/30 12:20:51;;;;;;;7.43;5.37;;;;;;;;;;5135697;27;20419;-68
2022/06/30 12:23:18;;;;;;;6.73;6.10;;;;;;;;;;5135707;27;20549;-69
2022/06/30 12:25:45;;;;;;;8.93;5.87;;;;;;;;;;5135766;27;20438;-69
2022/06/30 12:28:14;;;;;;;5.40;4.90;;;;;;;;;;5136010;27;20427;-69
2022/06/30 12:30:41;;;;;;;6.20;5.77;;;;;;;;;;5135818;27;20415;-69
2022/06/30 12:33:09;;;;;;;10.13;5.23;;;;;;;;;;5135707;27;20860;-69
2022/06/30 12:35:38;;;;;;;6.27;5.80;;;;;;;;;;5135548;27;20529;-69
2022/06/30 12:38:13;;;;;;;7.47;5.33;;;;;;;;;;5135472;27;20445;-69
2022/06/30 12:40:40;;;;;;;5.97;5.10;;;;;;;;;;5135423;27;20830;-69
2022/06/30 12:43:08;;;;;;;5.30;4.80;;;;;;;;;;5135477;27;20486;-68
2022/06/30 12:45:38;;;;;;;5.23;4.83;;;;;;;;;;5134684;27;20448;-68
2022/06/30 12:48:07;;;;;;;7.13;5.70;;;;;;;;;;5135119;27;20436;-68
2022/06/30 12:50:35;;;;;;;5.00;4.60;;;;;;;;;;5135024;27;21051;-68
2022/06/30 12:53:18;;;;;;;5.63;4.53;;;;;;;;;;5135187;27;20538;-68
2022/06/30 12:55:59;;;;;;;5.33;4.53;;;;;;;;;;5135036;27;20463;-74
2022/06/30 12:58:26;;;;;;;5.07;4.67;;;;;;;;;;5134797;27;20527;-70
2022/06/30 13:00:59;;;;;;;5.07;4.57;;;;;;;;;;5135336;27;20433;-71
2022/06/30 13:03:27;;;;;;;4.53;4.13;;;;;;;;;;5135092;27;20454;-70
2022/06/30 13:05:54;;;;;;;4.70;4.30;;;;;;;;;;5134889;27;20438;-70
2022/06/30 13:08:21;;;;;;;5.43;4.67;;;;;;;;;;5134640;27;20484;-70
2022/06/30 13:11:07;;;;;;;8.37;4.10;;;;;;;;;;5135727;27;20549;-70
2022/06/30 13:13:34;;;;;;;4.23;3.93;;;;;;;;;;5134631;27;20526;-71
2022/06/30 13:16:02;;;;;;;5.57;4.07;;;;;;;;;;5134247;27;20492;-70
2022/06/30 13:18:30;;;;;;;5.20;4.17;;;;;;;;;;5133357;27;20527;-70
2022/06/30 13:20:57;;;;;;;4.77;4.30;;;;;;;;;;5134303;27;20498;-71
2022/06/30 13:23:24;;;;;;;4.60;4.20;;;;;;;;;;5134471;27;20437;-70
2022/06/30 13:25:51;;;;;;;6.23;4.70;;;;;;;;;;5134686;27;20470;-69
2022/06/30 13:28:19;;;;;;;6.00;4.43;;;;;;;;;;5134656;27;20486;-70
2022/06/30 13:30:46;;;;;;;5.37;4.27;;;;;;;;;;5134768;27;20519;-70
2022/06/30 13:33:15;;;;;;;4.37;3.97;;;;;;;;;;5134017;27;20470;-70
2022/06/30 13:35:42;;;;;;;5.30;4.80;;;;;;;;;;5134197;27;20429;-70
2022/06/30 13:38:09;;;;;;;5.17;4.73;;;;;;;;;;5134492;27;20435;-70
2022/06/30 13:40:37;;;;;;;4.33;4.03;;;;;;;;;;5134046;28;20989;-70
2022/06/30 13:43:05;;;;;;;4.03;3.63;;;;;;;;;;5134208;28;20976;-70
2022/06/30 13:45:32;;;;;;;4.30;4.00;;;;;;;;;;5134761;28;20443;-70
2022/06/30 13:47:59;;;;;;;6.80;4.93;;;;;;;;;;5134078;28;20437;-70
2022/06/30 13:50:28;;;;;;;4.93;4.37;;;;;;;;;;5134478;27;20603;-70
2022/06/30 13:52:55;;;;;;;8.63;5.00;;;;;;;;;;5134823;28;20536;-70
2022/06/30 13:55:22;;;;;;;7.17;4.77;;;;;;;;;;5133917;28;20525;-70
2022/06/30 13:57:50;;;;;;;6.00;4.50;;;;;;;;;;5134266;28;20533;-71
2022/06/30 14:00:17;;;;;;;4.43;4.13;;;;;;;;;;5134198;28;20431;-71
2022/06/30 14:02:45;;;;;;;4.47;4.17;;;;;;;;;;5134048;28;20851;-70
2022/06/30 14:05:12;;;;;;;5.80;4.63;;;;;;;;;;5133754;28;20451;-70
2022/06/30 14:07:41;;;;;;;7.83;6.47;;;;;;;;;;5133816;28;20472;-70
2022/06/30 14:10:10;;;;;;;6.60;5.90;;;;;;;;;;5136047;27;20493;-70
2022/06/30 14:12:38;;;;;;;7.53;6.83;;;;;;;;;;5137931;27;20448;-71
2022/06/30 14:15:06;;;;;;;6.40;5.80;;;;;;;;;;5138173;27;20521;-70
2022/06/30 14:17:34;;;;;;;5.60;5.20;;;;;;;;;;5138452;27;20441;-70
2022/06/30 14:20:01;;;;;;;5.40;4.80;;;;;;;;;;5137912;27;20507;-70
2022/06/30 14:22:28;;;;;;;8.30;5.47;;;;;;;;;;5137848;27;20532;-71
2022/06/30 14:24:57;;;;;;;4.27;4.07;;;;;;;;;;5137455;27;20476;-71
2022/06/30 14:27:24;;;;;;;6.50;4.27;;;;;;;;;;5138576;27;20917;-69
2022/06/30 14:29:51;;;;;;;5.03;4.63;;;;;;;;;;5137772;27;20795;-71
2022/06/30 14:32:19;;;;;;;5.10;4.80;;;;;;;;;;5137374;27;20470;-71
2022/06/30 14:34:46;;;;;;;5.30;4.90;;;;;;;;;;5137905;27;20559;-71
2022/06/30 14:37:13;;;;;;;11.20;4.57;;;;;;;;;;5137678;27;20449;-71
2022/06/30 14:39:41;;;;;;;5.00;4.70;;;;;;;;;;5137709;27;20472;-70
2022/06/30 14:44:55;;;;;;;5.00;4.60;;;;;;;;;;5137553;27;20467;-69
2022/06/30 14:47:22;;;;;;;7.43;4.70;;;;;;;;;;5137335;27;20450;-70
2022/06/30 14:49:49;;;;;;;4.40;4.10;;;;;;;;;;5137150;27;20472;-70
2022/06/30 14:52:17;;;;;;;4.93;4.53;;;;;;;;;;5137236;27;20440;-70
2022/06/30 14:54:44;;;;;;;6.13;5.53;;;;;;;;;;5137431;27;20503;-71
2022/06/30 14:57:12;;;;;;;6.37;5.87;;;;;;;;;;5137302;27;20856;-71
2022/06/30 14:59:40;;;;;;;8.30;6.93;;;;;;;;;;5137078;27;20963;-70
2022/06/30 15:02:07;;;;;;;7.03;5.80;;;;;;;;;;5137425;27;20443;-71
2022/06/30 15:04:35;;;;;;;5.90;4.63;;;;;;;;;;5137368;27;20504;-71
2022/06/30 15:07:06;;;;;;;13.03;6.00;;;;;;;;;;5136896;27;20455;-70
2022/06/30 15:09:34;;;;;;;5.03;4.63;;;;;;;;;;5137060;27;20991;-70